Blackfoot, Montana
Current Conditions -  °F | °C
As of 11:56 AM on Wednesday 28 Jan 2015 (Local Time) from KCTB Reporting Station
Few Clouds Few Clouds  
Wind Chill:   Ceiling: Unl
Heat Index:   Visibility: 10mi
Dew Point: -1°   Wind: 7mph
Humidity: 70%   Direction: 10°N
Pressure: 30.24"   Gusts: NA
Location:  48.5484°N, 112.952°W
Report Text: KCTB 281856Z AUTO 01006KT 10SM FEW060 04/M01 A3024 RMK AO2 SLP254 T00391011
Loading
Personal Weather Stations






























Interactive Weather Map New forecast layout! Learn more

10-Day Weather Forecast

Advertisements
Track Severe Weather on mobile